Impacts METAR Board
IDs:

KPIT - Pittsburgh Intl, PA, US

Updated at: 0800 UTC 18 Sep 2021
Potential Impact None Slight Moderate High
Time 17/20Z 17/21Z 17/22Z 17/23Z 18/00Z 18/01Z 18/02Z 18/03Z 18/04Z 18/05Z 18/06Z 18/07Z 18/08Z
Temp82 83 82 80 78 76 74 72 69 69 67 66 66
Dewpt65 64 65 65 65 66 66 66 65 66 64 64 64
Altim30.13 30.12 30.12 30.12 30.12 30.13 30.13 30.13 30.13 30.13 30.13 30.13 30.12
VIS10 10 10 10 10 10 10 10 10 10 10 10 10
CIG95 -- -- -- -- 110 -- -- -- -- -- -- --
CoverBKNSCTSCTSCTSCTBKNFEWFEWFEWFEWFEWSCTSCT
FltCatVFRVFRVFRVFRVFRVFRVFRVFRVFRVFRVFRVFRVFR
WX--------------------------
WDir170150180170170017000016000
WSpd3 6 4 4 3 0 3 0 0 0 3 0 0
WGst-- -- -- -- -- -- -- -- -- -- -- -- --
Raw hourly METARs
KPIT 171951Z 17003KT 10SM SCT041 SCT055 BKN095 28/18 A3013 RMK AO2 SLP203 T02780183
KPIT 172051Z 15006KT 10SM FEW041 SCT070 SCT110 28/18 A3012 RMK AO2 SLP199 T02830178 56017
KPIT 172151Z 18004KT 10SM FEW043 FEW075 SCT110 28/18 A3012 RMK AO2 SLP198 T02780183
KPIT 172251Z 17004KT 10SM FEW045 FEW075 SCT110 27/18 A3012 RMK AO2 SLP199 T02670183
KPIT 172351Z 17003KT 10SM SCT045 SCT110 26/18 A3012 RMK AO2 SLP198 T02560183 10283 20256 56002
KPIT 180051Z 00000KT 10SM FEW050 FEW070 BKN110 24/19 A3013 RMK AO2 SLP202 T02440189
KPIT 180151Z 17003KT 10SM FEW050 FEW110 23/19 A3013 RMK AO2 SLP202 T02330189
KPIT 180251Z 00000KT 10SM FEW045 FEW250 22/19 A3013 RMK AO2 SLP201 T02220189 50004
KPIT 180351Z 00000KT 10SM FEW050 FEW250 21/18 A3013 RMK AO2 SLP202 T02060183
KPIT 180451Z 00000KT 10SM FEW050 21/19 A3013 RMK AO2 SLP201 T02060189 402830178
KPIT 180551Z 16003KT 10SM FEW050 19/18 A3013 RMK AO2 SLP202 T01940178 10250 20194 50001
KPIT 180651Z 00000KT 10SM FEW050 SCT090 19/18 A3013 RMK AO2 SLP201 T01890178
KPIT 180751Z 00000KT 10SM FEW050 SCT090 19/18 A3012 RMK AO2 SLP200 T01890178



Page loaded:  08:02 UTC  |   01:02 AM Pacific  |   02:02 AM Mountain  |   03:02 AM Central  |   04:02 AM Eastern

 

ADVISORIES

FORECASTS

FORECASTS

OBSERVATIONS

USER TOOLS

ABOUT US